Saturday, August 18, 2018, 1:52 PM EDT
Back to Local

KBTP, Butler, Butler County Airport/k W Scholter Field

Location: Renfrew, PA, United States Lat: 40.783
Local Time: 1:52 PM EDT (17:52 GMT) Lon: -79.95
Time Zone: US/Eastern Elev: 1246 ft

Show me the last for .
Show Decoded

2018-08-18 12:56 METAR KBTP 181656Z AUTO 28007KT 10SM SCT019 SCT025 BKN035 25/20 A2994 RMK AO2
                 SLP134 T02500200 =
2018-08-18 12:32 METAR KBTP 181632Z AUTO 27008KT 10SM FEW017 SCT023 BKN035 25/21 A2995 RMK AO2 =
2018-08-18 12:21 METAR KBTP 181621Z AUTO 27006KT 10SM SCT014 BKN021 25/21 A2995 RMK AO2 =
2018-08-18 11:56 METAR KBTP 181556Z AUTO 27008KT 10SM BKN014 BKN019 OVC035 23/21 A2996 RMK AO2
                 SLP142 T02330206 =
2018-08-18 10:56 METAR KBTP 181456Z AUTO 26006KT 10SM OVC014 22/20 A2995 RMK AO2 SLP141 T02220200
                 56009 =
2018-08-18 10:53 METAR KBTP 181453Z AUTO 24009KT 10SM OVC014 22/20 A2995 RMK AO2 =
2018-08-18 09:56 METAR KBTP 181356Z AUTO 27005KT 10SM BKN009 OVC013 21/19 A2997 RMK AO2 CIG
                 008V011 SLP147 T02110194 =
2018-08-18 09:46 METAR KBTP 181346Z AUTO 27006KT 10SM OVC013 21/19 A2997 RMK AO2 =
2018-08-18 09:29 METAR KBTP 181329Z AUTO 26006KT 10SM FEW008 OVC016 21/19 A2997 RMK AO2 =
2018-08-18 09:21 METAR KBTP 181321Z AUTO VRB05KT 10SM SCT008 BKN014 OVC019 21/19 A2998 RMK AO2 =
2018-08-18 08:56 METAR KBTP 181256Z AUTO VRB03KT 10SM OVC008 21/19 A2998 RMK AO2 CIG 006V013
                 SLP152 T02060194 =
2018-08-18 08:45 METAR KBTP 181245Z AUTO 27006KT 10SM BKN008 OVC013 21/19 A2998 RMK AO2 =
2018-08-18 08:13 METAR KBTP 181213Z AUTO 25004KT 10SM FEW008 BKN015 21/19 A2997 RMK AO2 =
2018-08-18 07:56 METAR KBTP 181156Z AUTO 26007KT 10SM BKN008 OVC013 21/19 A2997 RMK AO2 CIG
                 007V011 SLP147 70014 T02060194 10211 20200 51002 =
2018-08-18 06:56 METAR KBTP 181056Z AUTO 25005KT 10SM BKN014 20/19 A2996 RMK AO2 SLP145 T02000194
                 =
2018-08-18 06:47 METAR KBTP 181047Z AUTO 25003KT 10SM SCT016 BKN021 BKN044 20/19 A2996 RMK AO2 =
2018-08-18 06:27 METAR KBTP 181027Z AUTO 26005KT 10SM FEW006 SCT023 BKN044 21/19 A2996 RMK AO2 =
2018-08-18 06:15 METAR KBTP 181015Z AUTO 26004KT 10SM SCT008 BKN023 OVC044 21/20 A2996 RMK AO2 =
2018-08-18 06:04 METAR KBTP 181004Z AUTO 27005KT 10SM BKN008 BKN015 OVC023 21/20 A2996 RMK AO2
                 CIG 003V011 =
2018-08-18 05:56 METAR KBTP 180956Z AUTO 26008KT 10SM FEW003 BKN010 OVC015 21/20 A2996 RMK AO2
                 CIG 006V011 SLP143 T02060200 =
2018-08-18 05:08 METAR KBTP 180908Z AUTO 23005KT 5SM BR BKN005 BKN009 OVC016 21/21 A2995 RMK AO2
                 CIG 002V008 =
2018-08-18 04:56 METAR KBTP 180856Z AUTO 23006KT 5SM BR SCT003 BKN012 OVC016 21/21 A2995 RMK AO2
                 SLP138 T02060206 55007 =
2018-08-18 04:45 METAR KBTP 180845Z AUTO 23006KT 4SM BR BKN003 BKN006 OVC014 21/21 A2995 RMK AO2
                 CIG 002V006 =
2018-08-18 04:22 METAR KBTP 180822Z AUTO 23005KT 4SM BR SCT004 BKN008 21/21 A2995 RMK AO2 CIG
                 006V013 =
2018-08-18 03:56 METAR KBTP 180756Z AUTO 23005KT 5SM BR OVC004 21/21 A2995 RMK AO2 CIG 003V008
                 SLP138 T02060206 =
2018-08-18 02:56 METAR KBTP 180656Z AUTO 26003KT 4SM BR OVC004 21/20 A2996 RMK AO2 SLP142
                 T02060200 =
2018-08-18 01:56 METAR KBTP 180556Z AUTO 23003KT 6SM BR OVC004 20/19 A2997 RMK AO2 SLP146 P0001
                 60001 T02000194 10206 20200 56007 =
2018-08-18 01:38 METAR KBTP 180538Z AUTO 00000KT 7SM BKN004 20/19 A2996 RMK AO2 P0001 =
2018-08-18 00:56 METAR KBTP 180456Z AUTO 19004KT 9SM FEW006 BKN100 20/19 A2997 RMK AO2 SLP148
                 T02000194 402610200 =
2018-08-18 00:40 METAR KBTP 180440Z AUTO 18005KT 10SM SCT019 OVC100 20/19 A2998 RMK AO2 =
2018-08-18 00:25 METAR KBTP 180425Z AUTO 19004KT 10SM SCT017 BKN021 OVC095 20/19 A2998 RMK AO2 =
2018-08-17 23:56 METAR KBTP 180356Z AUTO 21004KT 10SM OVC110 20/19 A2999 RMK AO2 SLP154 T02000194
                 =
2018-08-17 22:56 METAR KBTP 180256Z AUTO 18004KT 10SM SCT021 BKN120 20/19 A2999 RMK AO2 SLP152
                 60000 T02000194 57006 =
2018-08-17 22:21 METAR KBTP 180221Z AUTO 00000KT 10SM BKN023 20/19 A3000 RMK AO2 =
2018-08-17 21:56 METAR KBTP 180156Z AUTO 18005KT 10SM FEW023 SCT030 SCT060 20/19 A3001 RMK AO2
                 RAE08 SLP159 P0000 T02000194 =
2018-08-17 20:56 METAR KBTP 180056Z AUTO 19005KT 10SM -RA FEW026 SCT037 BKN050 21/19 A3001 RMK
                 AO2 RAE06B39 SLP159 P0000 T02060194 =
2018-08-17 19:56 METAR KBTP 172356Z AUTO 22005KT 10SM -RA SCT038 SCT048 21/20 A3000 RMK AO2
                 SLP157 P0008 60013 T02060200 10261 20206 53002 =
2018-08-17 18:56 METAR KBTP 172256Z AUTO 20005KT 7SM RA SCT038 BKN046 OVC055 22/21 A2998 RMK AO2
                 RAB04 SLP151 P0003 T02170211 =
2018-08-17 17:56 METAR KBTP 172156Z AUTO 20008KT 10SM FEW012 SCT085 23/21 A2997 RMK AO2 LTG DSNT
                 S RAE01 SLP148 P0000 T02330211 =
2018-08-17 17:33 METAR KBTP 172133Z AUTO 20008KT 10SM SCT013 BKN085 24/22 A2998 RMK AO2 LTG DSNT
                 S RAE01 P0000 =
2018-08-17 17:24 METAR KBTP 172124Z AUTO 20007KT 9SM BKN013 BKN021 BKN085 24/22 A2998 RMK AO2
                 RAE01 P0000 =
2018-08-17 16:56 METAR KBTP 172056Z AUTO 23009KT 9SM -RA FEW015 BKN032 24/23 A2999 RMK AO2 RAB20
                 SLP153 P0002 60002 T02440228 58012 =
2018-08-17 16:08 METAR KBTP 172008Z AUTO 22007KT 9SM FEW016 SCT100 24/22 A3001 RMK AO2 LTG DSNT
                 SW AND NW =
2018-08-17 15:56 METAR KBTP 171956Z AUTO 23011KT 9SM BKN016 BKN022 BKN100 24/22 A3001 RMK AO2 LTG
                 DSNT SW AND W SLP159 T02440217 =
2018-08-17 14:13 METAR KBTP 171813Z AUTO 23013G17KT 10SM BKN016 BKN037 OVC060 26/22 A3002 RMK AO2
                 LTG DSNT E =
2018-08-17 13:56 METAR KBTP 171756Z AUTO 22010KT 10SM BKN014 OVC021 26/22 A3003 RMK AO2 SLP165
                 60000 T02560217 10256 20217 56006 =

Support USWX by starting your Amazon purchase here.